createdAt,value
2023-08-08T00:04:56.084Z,14.8
2023-08-08T00:10:45.867Z,14.7
2023-08-08T00:15:56.096Z,14.5
2023-08-08T00:20:56.085Z,14.5
2023-08-08T00:26:45.606Z,14.6
2023-08-08T00:31:45.845Z,14.7
2023-08-08T00:36:55.866Z,14.7
2023-08-08T00:41:56.654Z,14.4
2023-08-08T00:47:46.208Z,14.3
2023-08-08T00:52:56.092Z,14.4
2023-08-08T00:58:45.577Z,14.4
2023-08-08T01:03:45.803Z,14.3
2023-08-08T01:08:45.892Z,14.1
2023-08-08T01:13:56.079Z,13.7
2023-08-08T01:19:45.656Z,13.8
2023-08-08T01:24:45.834Z,13.7
2023-08-08T01:29:45.845Z,13.7
2023-08-08T01:34:45.824Z,13.9
2023-08-08T01:44:56.107Z,14.1
2023-08-08T01:50:45.811Z,14.4
2023-08-08T01:55:56.117Z,14.6
2023-08-08T02:01:45.867Z,14.7
2023-08-08T02:06:45.819Z,14.5
2023-08-08T02:11:45.850Z,14.5
2023-08-08T02:16:55.957Z,14.4
2023-08-08T02:21:56.088Z,14.5
2023-08-08T02:27:45.836Z,14.5
2023-08-08T02:32:56.113Z,14.4
2023-08-08T02:37:57.528Z,14.4
2023-08-08T02:43:45.829Z,14.3
2023-08-08T02:48:45.817Z,14
2023-08-08T02:53:45.835Z,13.8
2023-08-08T02:58:45.845Z,13.6
2023-08-08T03:03:56.148Z,13.2
2023-08-08T03:08:56.116Z,13.2
2023-08-08T03:13:56.099Z,13.2
2023-08-08T03:19:45.674Z,13.1
2023-08-08T03:24:56.216Z,13
2023-08-08T03:30:45.649Z,13
2023-08-08T03:35:45.666Z,12.9
2023-08-08T03:40:55.912Z,12.9
2023-08-08T03:45:55.956Z,12.3
2023-08-08T03:51:45.641Z,12.5
2023-08-08T03:56:45.617Z,12.7
2023-08-08T04:01:45.639Z,12.7
2023-08-08T04:06:55.873Z,12.9
2023-08-08T04:11:55.888Z,12.9
2023-08-08T04:16:55.917Z,12.9
2023-08-08T04:21:55.886Z,13
2023-08-08T04:27:45.742Z,13
2023-08-08T04:32:45.725Z,13.3
2023-08-08T04:37:45.806Z,13.6
2023-08-08T04:42:45.813Z,13.8
2023-08-08T04:47:56.166Z,14.2
2023-08-08T04:53:45.661Z,14.6
2023-08-08T04:58:56.115Z,14.8
2023-08-08T05:04:45.664Z,14.9
2023-08-08T05:09:45.835Z,15
2023-08-08T05:14:56.263Z,15
2023-08-08T05:20:45.850Z,15.2
2023-08-08T05:25:56.089Z,15.3
2023-08-08T05:30:56.150Z,15.5
2023-08-08T05:35:56.130Z,15.7
2023-08-08T05:41:45.851Z,15.8
2023-08-08T05:46:56.127Z,16
2023-08-08T05:51:56.284Z,16
2023-08-08T05:56:56.200Z,16
2023-08-08T06:02:45.924Z,16
2023-08-08T06:07:56.272Z,15.9
2023-08-08T06:13:45.813Z,16.2
2023-08-08T06:18:45.848Z,16.5
2023-08-08T06:23:56.050Z,16.7
2023-08-08T06:28:56.068Z,16.8
2023-08-08T06:39:46.026Z,17.1
2023-08-08T06:55:45.919Z,17.3
2023-08-08T07:00:56.175Z,17.5
2023-08-08T07:06:45.858Z,17.9
2023-08-08T07:11:45.931Z,17.7
2023-08-08T07:16:45.984Z,17.9
2023-08-08T07:21:56.132Z,18.7
2023-08-08T07:27:45.857Z,18.7
2023-08-08T07:32:45.919Z,18.8
2023-08-08T07:37:56.085Z,19.3
2023-08-08T07:43:45.850Z,19.2
2023-08-08T07:48:56.151Z,19.5
2023-08-08T07:54:45.861Z,19.7
2023-08-08T07:59:56.133Z,20.2
2023-08-08T08:04:56.165Z,20.1
2023-08-08T08:20:45.922Z,21.6
2023-08-08T08:25:56.134Z,21.8
2023-08-08T08:30:56.174Z,21.7
2023-08-08T08:35:56.159Z,21.9
2023-08-08T08:40:56.156Z,22
2023-08-08T08:46:45.964Z,22
2023-08-08T08:51:56.269Z,21.5
2023-08-08T08:57:45.624Z,21.4
2023-08-08T09:02:45.934Z,21.4
2023-08-08T09:07:56.191Z,20.5
2023-08-08T09:12:56.250Z,19.6
2023-08-08T09:18:45.631Z,19.3
2023-08-08T09:23:46.548Z,19.3
2023-08-08T09:28:45.996Z,20.1
2023-08-08T09:33:55.920Z,20.6
2023-08-08T09:38:55.936Z,20.3
2023-08-08T09:44:45.658Z,20.1
2023-08-08T09:49:45.691Z,21
2023-08-08T09:54:45.924Z,21.7
2023-08-08T09:59:56.025Z,22.1
2023-08-08T10:05:45.704Z,21.8
2023-08-08T10:10:45.837Z,21.3
2023-08-08T10:15:56.045Z,21.8
2023-08-08T10:21:45.680Z,21.1
2023-08-08T10:26:55.985Z,21.3
2023-08-08T10:31:56.293Z,20.7
2023-08-08T10:37:45.754Z,21.7
2023-08-08T10:42:56.070Z,21
2023-08-08T10:48:45.853Z,21.5
2023-08-08T10:53:56.036Z,21.6
2023-08-08T10:58:56.204Z,21.7
2023-08-08T11:04:45.894Z,23.2
2023-08-08T11:09:45.872Z,23.9
2023-08-08T11:14:45.920Z,23.7
2023-08-08T11:19:56.276Z,22.9
2023-08-08T11:24:57.500Z,22.3
2023-08-08T11:30:46.039Z,22.4
2023-08-08T11:35:45.921Z,21.9
2023-08-08T11:40:56.194Z,21.7
2023-08-08T11:46:46.174Z,21.3
2023-08-08T11:51:56.026Z,21.8
2023-08-08T11:56:56.183Z,21.6
2023-08-08T12:01:56.193Z,21.9
2023-08-08T12:07:45.712Z,21.9
2023-08-08T12:12:45.946Z,22.1
2023-08-08T12:17:56.304Z,22.8
2023-08-08T12:22:56.285Z,21.8
2023-08-08T12:28:45.976Z,20.8
2023-08-08T12:33:56.206Z,20.9
2023-08-08T12:38:56.208Z,20.6
2023-08-08T12:44:46.018Z,20.5
2023-08-08T12:49:56.181Z,21.6
2023-08-08T12:54:56.211Z,21.3
2023-08-08T13:00:46.002Z,21.2
2023-08-08T13:05:56.213Z,21.6
2023-08-08T13:11:46.055Z,20.7
2023-08-08T13:16:56.203Z,20.3
2023-08-08T13:21:56.233Z,20.2
2023-08-08T13:26:56.237Z,20
2023-08-08T13:32:45.692Z,20.4
2023-08-08T13:37:45.777Z,20.3
2023-08-08T13:42:45.925Z,21
2023-08-08T13:47:56.007Z,21
2023-08-08T13:52:56.244Z,20.1
2023-08-08T13:57:56.312Z,19.9
2023-08-08T14:03:46.066Z,20.7
2023-08-08T14:08:45.966Z,21.2
2023-08-08T14:13:56.233Z,21.9
2023-08-08T14:19:45.822Z,22.2
2023-08-08T14:24:45.935Z,22.5
2023-08-08T14:35:45.754Z,21.2
2023-08-08T14:40:46.006Z,20.8
2023-08-08T14:45:56.102Z,21.1
2023-08-08T14:50:56.219Z,21.6
2023-08-08T14:56:45.953Z,21.9
2023-08-08T15:01:46.031Z,21.7
2023-08-08T15:06:46.118Z,22.1
2023-08-08T15:11:56.255Z,22.3
2023-08-08T15:17:46.150Z,22.1
2023-08-08T15:22:46.141Z,22.4
2023-08-08T15:27:56.232Z,22.1
2023-08-08T15:32:56.287Z,22.2
2023-08-08T15:37:56.415Z,22
2023-08-08T15:43:45.894Z,22.3
2023-08-08T15:48:45.933Z,22.7
2023-08-08T15:53:56.403Z,23.2
2023-08-08T15:59:45.781Z,23
2023-08-08T16:04:56.024Z,22
2023-08-08T16:09:56.045Z,21.9
2023-08-08T16:20:45.776Z,22.2
2023-08-08T16:25:45.812Z,21.8
2023-08-08T16:30:45.898Z,21.5
2023-08-08T16:35:56.107Z,21.5
2023-08-08T16:41:45.785Z,21.5
2023-08-08T16:46:45.903Z,21.8
2023-08-08T16:51:46.028Z,21.1
2023-08-08T16:56:56.077Z,20.7
2023-08-08T17:07:46.065Z,19.9
2023-08-08T17:12:56.219Z,20.2
2023-08-08T17:23:46.014Z,20.2
2023-08-08T17:28:56.281Z,20.3
2023-08-08T17:33:56.276Z,20.1
2023-08-08T17:39:46.173Z,20.1
2023-08-08T17:44:56.246Z,20.2
2023-08-08T17:49:56.287Z,20.3
2023-08-08T17:55:45.821Z,20.1
2023-08-08T18:00:46.022Z,20.3
2023-08-08T18:05:56.266Z,20.4
2023-08-08T18:10:56.292Z,20.2
2023-08-08T18:16:46.017Z,20.1
2023-08-08T18:21:56.336Z,19.9
2023-08-08T18:27:45.839Z,19.9
2023-08-08T18:32:46.113Z,19.5
2023-08-08T18:37:56.295Z,19.6
2023-08-08T18:43:45.961Z,19.5
2023-08-08T18:48:46.096Z,19.4
2023-08-08T18:53:56.284Z,19.3
2023-08-08T18:58:56.425Z,19.2
2023-08-08T19:04:46.075Z,19.1
2023-08-08T19:09:56.122Z,19.1
2023-08-08T19:14:56.132Z,19.1
2023-08-08T19:20:46.022Z,19.1
2023-08-08T19:25:46.069Z,19.1
2023-08-08T19:30:56.313Z,19.1
2023-08-08T19:36:46.045Z,19
2023-08-08T19:41:56.733Z,19
2023-08-08T19:47:45.829Z,19
2023-08-08T19:52:46.031Z,18.8
2023-08-08T19:57:56.275Z,18.7
2023-08-08T20:03:45.948Z,18.6
2023-08-08T20:08:46.036Z,18.6
2023-08-08T20:13:56.312Z,18.5
2023-08-08T20:19:46.019Z,18.7
2023-08-08T20:24:56.170Z,18.6
2023-08-08T20:29:56.175Z,18.5
2023-08-08T20:34:56.320Z,18.3
2023-08-08T20:40:46.056Z,18.5
2023-08-08T20:45:56.282Z,18.2
2023-08-08T20:50:56.312Z,18.4
2023-08-08T20:55:58.336Z,18.3
2023-08-08T21:01:46.056Z,18
2023-08-08T21:06:56.353Z,17.8
2023-08-08T21:17:46.067Z,17.6
2023-08-08T21:22:56.364Z,17.5
2023-08-08T21:28:46.040Z,17.4
2023-08-08T21:33:46.086Z,17.4
2023-08-08T21:38:56.117Z,17.4
2023-08-08T21:43:56.288Z,17.2
2023-08-08T21:48:56.329Z,17.2
2023-08-08T21:53:56.324Z,17.3
2023-08-08T21:58:56.376Z,17.3
2023-08-08T22:04:45.879Z,17.3
2023-08-08T22:09:56.143Z,17.4
2023-08-08T22:15:06.436Z,17.6
2023-08-08T22:20:45.832Z,17.6
2023-08-08T22:25:45.850Z,17.5
2023-08-08T22:30:45.894Z,17.5
2023-08-08T22:35:45.878Z,17.6
2023-08-08T22:40:47.998Z,17.5
2023-08-08T22:45:45.938Z,17.5
2023-08-08T22:50:56.144Z,17.4
2023-08-08T22:56:45.820Z,17.3
2023-08-08T23:01:56.154Z,17.4
2023-08-08T23:06:56.126Z,17.3
2023-08-08T23:11:56.160Z,17.2
2023-08-08T23:16:56.484Z,17.3
2023-08-08T23:22:46.245Z,17.2
2023-08-08T23:27:56.221Z,17.4
2023-08-08T23:32:56.356Z,17.5
2023-08-08T23:38:45.869Z,17.4
2023-08-08T23:43:46.081Z,17.3
2023-08-08T23:48:56.152Z,17.3
2023-08-08T23:59:45.848Z,17.3
